BRU939 UMMS-ULLI
Flight info
| Callsign | BRU939 |
|---|---|
| Flight time | N/A |
| Altitude | 35000 |
| Route | AGNEF2F AGNEF N743 DITBI T782 KOLET KOLET1V |
| Aircraft | B738/M-SDE2E3FGHIRWXY/LB1 |
Departure
| Time | N/A |
|---|---|
| Airport | Minsk National Airport (UMMS) |
Arrival
| Time | 2026-05-03 20:48 |
|---|---|
| Airport | Pulkovo Airport (ULLI) |
| Time | Latitude | Longitude | Altitude | Speed | Heading |
|---|---|---|---|---|---|
| 2026-05-03 20:15 | 56.85681 | 29.09582 | 34889 ft | 433 kts | 357° |
| 2026-05-03 20:15 | 56.91745 | 29.09825 | 34886 ft | 433 kts | 357° |
| 2026-05-03 20:16 | 56.97678 | 29.10064 | 34884 ft | 434 kts | 357° |
| 2026-05-03 20:16 | 57.03705 | 29.10307 | 34881 ft | 434 kts | 357° |
| 2026-05-03 20:17 | 57.09757 | 29.10552 | 34878 ft | 433 kts | 357° |
| 2026-05-03 20:17 | 57.15753 | 29.10796 | 34876 ft | 433 kts | 356° |
| 2026-05-03 20:18 | 57.21755 | 29.11075 | 34873 ft | 435 kts | 359° |
| 2026-05-03 20:18 | 57.27770 | 29.13299 | 34872 ft | 444 kts | 12° |
| 2026-05-03 20:19 | 57.33684 | 29.16984 | 34870 ft | 446 kts | 14° |
| 2026-05-03 20:19 | 57.39545 | 29.20806 | 34868 ft | 446 kts | 14° |
| 2026-05-03 20:20 | 57.45438 | 29.24565 | 34867 ft | 447 kts | 13° |
| 2026-05-03 20:20 | 57.51382 | 29.28271 | 34866 ft | 447 kts | 13° |
| 2026-05-03 20:21 | 57.57299 | 29.31913 | 34865 ft | 447 kts | 12° |
| 2026-05-03 20:21 | 57.63157 | 29.35505 | 34864 ft | 447 kts | 12° |
| 2026-05-03 20:22 | 57.69049 | 29.39122 | 34864 ft | 447 kts | 12° |
| 2026-05-03 20:22 | 57.74976 | 29.42768 | 34864 ft | 447 kts | 12° |
| 2026-05-03 20:23 | 57.80893 | 29.46420 | 34863 ft | 447 kts | 12° |
| 2026-05-03 20:23 | 57.86797 | 29.50077 | 34863 ft | 447 kts | 12° |
| 2026-05-03 20:23 | 57.89772 | 29.51925 | 34732 ft | 449 kts | 12° |
| 2026-05-03 20:24 | 57.92719 | 29.53757 | 34483 ft | 448 kts | 12° |
| 2026-05-03 20:24 | 57.95684 | 29.55607 | 34230 ft | 447 kts | 12° |
| 2026-05-03 20:24 | 57.98649 | 29.57460 | 33977 ft | 446 kts | 12° |
| 2026-05-03 20:24 | 58.01583 | 29.59294 | 33727 ft | 447 kts | 12° |
| 2026-05-03 20:25 | 58.04471 | 29.61102 | 33481 ft | 448 kts | 12° |
| 2026-05-03 20:25 | 58.07500 | 29.63002 | 33228 ft | 448 kts | 11° |
| 2026-05-03 20:25 | 58.10460 | 29.64860 | 32983 ft | 449 kts | 11° |
| 2026-05-03 20:25 | 58.13405 | 29.66713 | 32739 ft | 451 kts | 12° |
| 2026-05-03 20:26 | 58.16387 | 29.68593 | 32494 ft | 452 kts | 12° |
| 2026-05-03 20:26 | 58.19340 | 29.70458 | 32302 ft | 453 kts | 12° |
| 2026-05-03 20:26 | 58.22305 | 29.72337 | 32136 ft | 451 kts | 12° |
| 2026-05-03 20:26 | 58.25293 | 29.74235 | 31741 ft | 449 kts | 12° |
| 2026-05-03 20:27 | 58.28209 | 29.76092 | 31144 ft | 449 kts | 12° |
| 2026-05-03 20:27 | 58.31175 | 29.77981 | 30471 ft | 449 kts | 12° |
| 2026-05-03 20:27 | 58.34097 | 29.79844 | 29820 ft | 448 kts | 12° |
| 2026-05-03 20:27 | 58.37057 | 29.81735 | 29176 ft | 446 kts | 12° |
| 2026-05-03 20:28 | 58.39956 | 29.83591 | 28543 ft | 445 kts | 13° |
| 2026-05-03 20:28 | 58.42870 | 29.85459 | 27912 ft | 443 kts | 13° |
| 2026-05-03 20:28 | 58.45792 | 29.87336 | 27272 ft | 441 kts | 13° |
| 2026-05-03 20:28 | 58.48658 | 29.89181 | 26645 ft | 439 kts | 13° |
| 2026-05-03 20:29 | 58.51532 | 29.91033 | 26010 ft | 437 kts | 13° |
| 2026-05-03 20:29 | 58.54420 | 29.92897 | 25375 ft | 435 kts | 13° |
| 2026-05-03 20:29 | 58.57241 | 29.94721 | 24751 ft | 432 kts | 13° |
| 2026-05-03 20:29 | 58.60090 | 29.96566 | 24117 ft | 430 kts | 13° |
| 2026-05-03 20:30 | 58.62909 | 29.98395 | 23485 ft | 428 kts | 13° |
| 2026-05-03 20:30 | 58.65700 | 30.00209 | 22859 ft | 425 kts | 13° |
| 2026-05-03 20:30 | 58.68478 | 30.02017 | 22228 ft | 423 kts | 13° |
| 2026-05-03 20:30 | 58.71247 | 30.03822 | 21604 ft | 420 kts | 13° |
| 2026-05-03 20:31 | 58.73980 | 30.05608 | 21036 ft | 416 kts | 13° |
| 2026-05-03 20:31 | 58.76695 | 30.07387 | 20539 ft | 410 kts | 13° |
| 2026-05-03 20:31 | 58.79364 | 30.09138 | 19938 ft | 408 kts | 13° |
| 2026-05-03 20:31 | 58.82039 | 30.10892 | 19290 ft | 406 kts | 13° |
| 2026-05-03 20:32 | 58.84692 | 30.12634 | 18691 ft | 403 kts | 13° |
| 2026-05-03 20:32 | 58.87315 | 30.14359 | 18082 ft | 401 kts | 13° |
| 2026-05-03 20:32 | 58.89949 | 30.16094 | 17429 ft | 399 kts | 13° |
| 2026-05-03 20:32 | 58.92540 | 30.17807 | 17126 ft | 388 kts | 13° |
| 2026-05-03 20:33 | 58.95056 | 30.19477 | 16592 ft | 384 kts | 13° |
| 2026-05-03 20:33 | 58.97569 | 30.21141 | 16031 ft | 381 kts | 13° |
| 2026-05-03 20:33 | 59.00051 | 30.22786 | 15463 ft | 378 kts | 13° |
| 2026-05-03 20:33 | 59.02497 | 30.24412 | 14898 ft | 375 kts | 13° |
| 2026-05-03 20:34 | 59.04959 | 30.26055 | 14328 ft | 372 kts | 13° |
| 2026-05-03 20:34 | 59.07384 | 30.27671 | 13761 ft | 369 kts | 13° |
| 2026-05-03 20:34 | 59.09810 | 30.29287 | 13198 ft | 366 kts | 13° |
| 2026-05-03 20:34 | 59.12190 | 30.30878 | 12637 ft | 364 kts | 13° |
| 2026-05-03 20:35 | 59.14548 | 30.32455 | 12084 ft | 361 kts | 13° |
| 2026-05-03 20:35 | 59.16906 | 30.34036 | 11773 ft | 351 kts | 13° |
| 2026-05-03 20:35 | 59.19150 | 30.35553 | 11624 ft | 337 kts | 13° |
| 2026-05-03 20:35 | 59.21314 | 30.37017 | 11485 ft | 324 kts | 13° |
| 2026-05-03 20:36 | 59.23396 | 30.38425 | 11359 ft | 311 kts | 12° |
| 2026-05-03 20:36 | 59.25386 | 30.39773 | 11211 ft | 301 kts | 12° |
| 2026-05-03 20:36 | 59.27368 | 30.41103 | 10844 ft | 299 kts | 12° |
| 2026-05-03 20:36 | 59.29302 | 30.42397 | 10476 ft | 297 kts | 12° |
| 2026-05-03 20:37 | 59.31259 | 30.43709 | 10103 ft | 295 kts | 12° |
| 2026-05-03 20:37 | 59.33189 | 30.45010 | 9721 ft | 293 kts | 12° |
| 2026-05-03 20:37 | 59.35095 | 30.46296 | 9345 ft | 292 kts | 12° |
| 2026-05-03 20:37 | 59.36994 | 30.47586 | 8968 ft | 290 kts | 12° |
| 2026-05-03 20:38 | 59.38907 | 30.48894 | 8589 ft | 289 kts | 12° |
| 2026-05-03 20:38 | 59.40789 | 30.50178 | 8217 ft | 287 kts | 12° |
| 2026-05-03 20:38 | 59.42652 | 30.51448 | 7849 ft | 285 kts | 12° |
| 2026-05-03 20:38 | 59.44533 | 30.52720 | 7474 ft | 283 kts | 12° |
| 2026-05-03 20:39 | 59.46381 | 30.53981 | 7107 ft | 281 kts | 12° |
| 2026-05-03 20:39 | 59.48213 | 30.55230 | 6734 ft | 280 kts | 12° |
| 2026-05-03 20:39 | 59.50044 | 30.56478 | 6357 ft | 279 kts | 12° |
| 2026-05-03 20:39 | 59.51870 | 30.57732 | 5987 ft | 277 kts | 13° |
| 2026-05-03 20:40 | 59.53660 | 30.58963 | 5623 ft | 276 kts | 13° |
| 2026-05-03 20:40 | 59.55477 | 30.60219 | 5267 ft | 274 kts | 13° |
| 2026-05-03 20:40 | 59.57257 | 30.61442 | 4908 ft | 272 kts | 13° |
| 2026-05-03 20:40 | 59.59027 | 30.62661 | 4560 ft | 271 kts | 13° |
| 2026-05-03 20:41 | 59.60789 | 30.63880 | 4372 ft | 262 kts | 13° |
| 2026-05-03 20:41 | 59.62454 | 30.65034 | 4238 ft | 252 kts | 14° |
| 2026-05-03 20:41 | 59.64083 | 30.66163 | 4142 ft | 240 kts | 14° |
| 2026-05-03 20:41 | 59.65633 | 30.67081 | 3960 ft | 228 kts | 6° |
| 2026-05-03 20:42 | 59.67151 | 30.67077 | 3703 ft | 213 kts | 338° |
| 2026-05-03 20:42 | 59.68357 | 30.65697 | 3558 ft | 194 kts | 319° |
| 2026-05-03 20:42 | 59.69398 | 30.64119 | 3341 ft | 186 kts | 320° |
| 2026-05-03 20:42 | 59.70414 | 30.62675 | 3144 ft | 171 kts | 321° |
| 2026-05-03 20:43 | 59.71367 | 30.61355 | 3041 ft | 163 kts | 322° |
| 2026-05-03 20:43 | 59.72269 | 30.60099 | 2914 ft | 157 kts | 322° |
| 2026-05-03 20:43 | 59.73148 | 30.58866 | 2761 ft | 156 kts | 322° |
| 2026-05-03 20:43 | 59.74009 | 30.57589 | 2596 ft | 153 kts | 311° |
| 2026-05-03 20:44 | 59.74519 | 30.55808 | 2530 ft | 143 kts | 293° |
| 2026-05-03 20:44 | 59.74910 | 30.54002 | 2486 ft | 142 kts | 293° |
| 2026-05-03 20:44 | 59.75270 | 30.52177 | 2493 ft | 142 kts | 290° |
| 2026-05-03 20:44 | 59.75602 | 30.50321 | 2459 ft | 145 kts | 289° |
| 2026-05-03 20:45 | 59.75919 | 30.48412 | 2265 ft | 146 kts | 289° |
| 2026-05-03 20:45 | 59.76222 | 30.46526 | 2056 ft | 143 kts | 288° |
| 2026-05-03 20:45 | 59.76522 | 30.44646 | 1857 ft | 145 kts | 287° |
| 2026-05-03 20:45 | 59.76824 | 30.42747 | 1676 ft | 145 kts | 288° |
| 2026-05-03 20:46 | 59.77113 | 30.40810 | 1438 ft | 148 kts | 288° |
| 2026-05-03 20:46 | 59.77416 | 30.38884 | 1278 ft | 148 kts | 288° |
| 2026-05-03 20:46 | 59.77732 | 30.36871 | 1033 ft | 153 kts | 288° |
| 2026-05-03 20:46 | 59.78041 | 30.34857 | 854 ft | 154 kts | 286° |
| 2026-05-03 20:47 | 59.78350 | 30.32829 | 647 ft | 155 kts | 286° |
| 2026-05-03 20:47 | 59.78656 | 30.30812 | 436 ft | 152 kts | 286° |
| 2026-05-03 20:47 | 59.78951 | 30.28808 | 220 ft | 149 kts | 286° |
| 2026-05-03 20:47 | 59.79243 | 30.26872 | 103 ft | 137 kts | 285° |
| 2026-05-03 20:48 | 59.79471 | 30.25315 | 86 ft | 100 kts | 287° |
| 2026-05-03 20:48 | 59.79646 | 30.24150 | 83 ft | 73 kts | 286° |
| 2026-05-03 20:48 | 59.79758 | 30.23388 | 81 ft | 29 kts | 285° |
| 2026-05-03 20:48 | 59.79839 | 30.23183 | 79 ft | 12 kts | 313° |
| 2026-05-03 20:49 | 59.79889 | 30.23078 | 79 ft | 8 kts | 313° |
| 2026-05-03 20:49 | 59.79921 | 30.23026 | 79 ft | 4 kts | 343° |
| 2026-05-03 20:49 | 59.79955 | 30.23027 | 79 ft | 5 kts | 20° |
| 2026-05-03 20:49 | 59.79979 | 30.23106 | 79 ft | 9 kts | 89° |
| 2026-05-03 20:50 | 59.79958 | 30.23259 | 79 ft | 14 kts | 107° |
| 2026-05-03 20:50 | 59.79927 | 30.23478 | 81 ft | 18 kts | 105° |
| 2026-05-03 20:50 | 59.79889 | 30.23728 | 83 ft | 19 kts | 107° |
| 2026-05-03 20:50 | 59.79845 | 30.24023 | 83 ft | 25 kts | 106° |
| 2026-05-03 20:51 | 59.79794 | 30.24366 | 83 ft | 25 kts | 106° |
| 2026-05-03 20:51 | 59.79746 | 30.24688 | 83 ft | 23 kts | 105° |
| 2026-05-03 20:51 | 59.79706 | 30.24963 | 89 ft | 18 kts | 106° |
| 2026-05-03 20:51 | 59.79671 | 30.25196 | 90 ft | 17 kts | 106° |
| 2026-05-03 20:52 | 59.79638 | 30.25417 | 89 ft | 16 kts | 107° |
| 2026-05-03 20:52 | 59.79607 | 30.25631 | 88 ft | 16 kts | 104° |
| 2026-05-03 20:52 | 59.79578 | 30.25837 | 88 ft | 15 kts | 107° |
| 2026-05-03 20:52 | 59.79548 | 30.26029 | 87 ft | 14 kts | 105° |
| 2026-05-03 20:53 | 59.79522 | 30.26183 | 86 ft | 12 kts | 109° |
| 2026-05-03 20:53 | 59.79506 | 30.26321 | 86 ft | 7 kts | 78° |
| 2026-05-03 20:53 | 59.79534 | 30.26368 | 86 ft | 4 kts | 15° |
| 2026-05-03 20:53 | 59.79570 | 30.26387 | 86 ft | 8 kts | 14° |
| 2026-05-03 20:54 | 59.79626 | 30.26417 | 86 ft | 8 kts | 16° |
| 2026-05-03 20:54 | 59.79772 | 30.26503 | 86 ft | 13 kts | 16° |
| 2026-05-03 20:54 | 59.79842 | 30.26544 | 86 ft | 12 kts | 16° |
| 2026-05-03 20:55 | 59.79907 | 30.26583 | 86 ft | 12 kts | 17° |
| 2026-05-03 20:55 | 59.79966 | 30.26618 | 86 ft | 11 kts | 16° |
| 2026-05-03 20:55 | 59.80027 | 30.26654 | 86 ft | 11 kts | 15° |
| 2026-05-03 20:55 | 59.80153 | 30.26723 | 83 ft | 12 kts | 14° |
| 2026-05-03 20:56 | 59.80205 | 30.26757 | 82 ft | 5 kts | 19° |
| 2026-05-03 20:56 | 59.80212 | 30.26773 | 82 ft | 0 kts | 97° |
| 2026-05-03 20:56 | 59.80207 | 30.26792 | 82 ft | 1 kts | 117° |
| 2026-05-03 20:56 | 59.80201 | 30.26818 | 82 ft | 2 kts | 109° |
| 2026-05-03 20:57 | 59.80197 | 30.26846 | 82 ft | 2 kts | 107° |
| 2026-05-03 20:57 | 59.80192 | 30.26878 | 83 ft | 2 kts | 106° |
| 2026-05-03 20:57 | 59.80188 | 30.26907 | 83 ft | 0 kts | 107° |
| 2026-05-03 20:57 | 59.80188 | 30.26909 | 83 ft | 0 kts | 107° |